createdAt,value
2018-09-23T00:00:41.717Z,70.40
2018-09-23T00:06:11.050Z,70.90
2018-09-23T00:11:40.492Z,71.30
2018-09-23T00:17:10.036Z,71.90
2018-09-23T00:22:39.698Z,72.00
2018-09-23T00:28:09.071Z,72.20
2018-09-23T00:33:39.637Z,72.70
2018-09-23T00:39:11.186Z,73.10
2018-09-23T00:44:40.819Z,73.10
2018-09-23T00:50:10.573Z,73.50
2018-09-23T00:55:39.939Z,74.50
2018-09-23T01:01:09.347Z,74.50
2018-09-23T01:06:38.637Z,75.00
2018-09-23T01:12:11.154Z,75.50
2018-09-23T01:17:40.668Z,75.80
2018-09-23T01:23:10.149Z,76.20
2018-09-23T01:28:39.480Z,76.50
2018-09-23T01:34:10.600Z,76.80
2018-09-23T01:39:39.957Z,77.10
2018-09-23T01:45:09.295Z,77.30
2018-09-23T01:50:38.611Z,77.80
2018-09-23T01:56:11.927Z,77.90
2018-09-23T02:01:41.626Z,78.40
2018-09-23T02:07:11.075Z,78.40
2018-09-23T02:12:40.496Z,78.40
2018-09-23T02:18:10.975Z,78.60
2018-09-23T02:23:40.356Z,78.80
2018-09-23T02:29:11.946Z,79.10
2018-09-23T02:34:41.365Z,79.10
2018-09-23T02:40:10.707Z,79.30
2018-09-23T02:45:39.985Z,79.60
2018-09-23T02:51:09.312Z,80.00
2018-09-23T02:56:38.751Z,80.20
2018-09-23T03:02:08.026Z,81.30
2018-09-23T03:07:37.911Z,80.90
2018-09-23T03:13:09.406Z,80.80
2018-09-23T03:18:39.277Z,81.00
2018-09-23T03:24:09.474Z,81.10
2018-09-23T03:29:38.760Z,80.90
2018-09-23T03:35:09.175Z,81.00
2018-09-23T03:40:38.468Z,80.90
2018-09-23T03:46:07.812Z,80.60
2018-09-23T03:51:37.020Z,80.80
2018-09-23T03:57:06.316Z,80.80
2018-09-23T04:02:36.695Z,80.70
2018-09-23T04:08:06.657Z,80.70
2018-09-23T04:13:35.953Z,80.90
2018-09-23T04:19:06.220Z,80.70
2018-09-23T04:24:35.451Z,81.00
2018-09-23T04:30:05.879Z,81.20
2018-09-23T04:35:35.104Z,80.90
2018-09-23T04:41:10.685Z,81.30
2018-09-23T04:46:40.029Z,81.30
2018-09-23T04:52:09.380Z,81.30
2018-09-23T04:57:38.725Z,81.30
2018-09-23T05:03:08.100Z,81.50
2018-09-23T05:08:37.309Z,81.60
2018-09-23T05:14:07.766Z,81.80
2018-09-23T05:19:37.036Z,81.70
2018-09-23T05:25:06.291Z,82.00
2018-09-23T05:30:35.567Z,82.30
2018-09-23T05:36:04.910Z,82.20
2018-09-23T05:41:34.200Z,82.40
2018-09-23T05:47:03.473Z,82.60
2018-09-23T05:52:32.674Z,82.70
2018-09-23T05:58:01.919Z,82.50
2018-09-23T06:03:31.976Z,82.40
2018-09-23T06:09:02.797Z,82.90
2018-09-23T06:14:33.059Z,82.90
2018-09-23T06:20:02.668Z,83.00
2018-09-23T06:25:31.881Z,83.20
2018-09-23T06:31:01.194Z,83.30
2018-09-23T06:36:30.451Z,83.60
2018-09-23T06:41:59.672Z,83.60
2018-09-23T06:47:28.892Z,83.80
2018-09-23T06:53:00.219Z,83.70
2018-09-23T06:58:29.594Z,83.90
2018-09-23T07:03:58.815Z,84.00
2018-09-23T07:09:28.032Z,84.10
2018-09-23T07:14:57.292Z,84.50
2018-09-23T07:20:26.634Z,84.70
2018-09-23T07:25:55.944Z,84.80
2018-09-23T07:31:26.556Z,85.30
2018-09-23T07:36:55.907Z,85.40
2018-09-23T07:42:25.336Z,85.70
2018-09-23T07:47:54.674Z,85.90
2018-09-23T07:53:23.833Z,85.80
2018-09-23T07:58:53.171Z,85.80
2018-09-23T08:04:23.396Z,85.60
2018-09-23T08:09:52.902Z,85.70
2018-09-23T08:15:22.412Z,85.70
2018-09-23T08:20:56.208Z,85.90
2018-09-23T08:26:25.408Z,85.70
2018-09-23T08:31:54.677Z,86.10
2018-09-23T08:37:24.042Z,85.70
2018-09-23T08:42:53.244Z,85.60
2018-09-23T08:48:22.588Z,85.20
2018-09-23T08:53:51.844Z,85.30
2018-09-23T08:59:21.116Z,85.70
2018-09-23T09:04:51.202Z,85.40
2018-09-23T09:10:21.082Z,85.10
2018-09-23T09:15:57.148Z,84.30
2018-09-23T09:21:26.454Z,84.20
2018-09-23T09:26:56.067Z,83.90
2018-09-23T09:32:25.354Z,82.30
2018-09-23T09:37:54.596Z,81.60
2018-09-23T09:43:24.045Z,81.30
2018-09-23T09:48:53.463Z,80.30
2018-09-23T09:54:22.836Z,79.60
2018-09-23T09:59:52.088Z,79.10
2018-09-23T10:05:21.547Z,77.70
2018-09-23T10:10:51.077Z,76.80
2018-09-23T10:16:20.405Z,76.10
2018-09-23T10:21:49.780Z,75.60
2018-09-23T10:27:19.311Z,74.90
2018-09-23T10:32:48.708Z,74.30
2018-09-23T10:38:17.965Z,73.70
2018-09-23T10:43:47.553Z,72.90
2018-09-23T10:49:17.653Z,72.40
2018-09-23T10:54:46.943Z,70.60
2018-09-23T11:00:16.371Z,69.60
2018-09-23T11:05:45.715Z,68.30
2018-09-23T11:11:15.355Z,67.30
2018-09-23T11:16:44.925Z,66.40
2018-09-23T11:22:14.275Z,66.50
2018-09-23T11:27:43.649Z,65.50
2018-09-23T11:33:14.554Z,64.90
2018-09-23T11:38:44.264Z,64.30
2018-09-23T11:44:14.315Z,64.00
2018-09-23T11:49:44.308Z,63.30
2018-09-23T11:55:13.676Z,61.40
2018-09-23T12:00:43.663Z,60.10
2018-09-23T12:06:13.238Z,59.60
2018-09-23T12:11:42.757Z,58.70
2018-09-23T12:17:13.259Z,58.70
2018-09-23T12:22:42.688Z,58.70
2018-09-23T12:28:12.055Z,57.80
2018-09-23T12:33:41.516Z,58.10
2018-09-23T12:39:11.902Z,57.70
2018-09-23T12:44:41.554Z,57.00
2018-09-23T12:50:11.036Z,56.60
2018-09-23T12:55:40.468Z,53.80
2018-09-23T13:01:10.240Z,50.30
2018-09-23T13:06:40.559Z,49.70
2018-09-23T13:12:10.043Z,49.90
2018-09-23T13:17:39.499Z,51.20
2018-09-23T13:23:08.880Z,52.50
2018-09-23T13:28:38.102Z,52.70
2018-09-23T13:34:07.622Z,52.30
2018-09-23T13:39:37.628Z,51.30
2018-09-23T13:45:11.511Z,49.90
2018-09-23T13:50:40.845Z,48.70
2018-09-23T13:56:10.276Z,47.00
2018-09-23T14:01:39.765Z,46.00
2018-09-23T14:07:11.668Z,46.40
2018-09-23T14:12:41.121Z,47.00
2018-09-23T14:18:10.496Z,49.50
2018-09-23T14:23:40.005Z,52.10
2018-09-23T14:29:09.372Z,52.40
2018-09-23T14:34:38.725Z,53.50
2018-09-23T14:40:08.199Z,54.00
2018-09-23T14:45:37.685Z,54.30
2018-09-23T14:51:07.141Z,55.10
2018-09-23T14:56:36.449Z,55.30
2018-09-23T15:02:05.918Z,55.50
2018-09-23T15:07:35.258Z,55.60
2018-09-23T15:13:04.533Z,55.70
2018-09-23T15:18:33.787Z,55.40
2018-09-23T15:24:03.098Z,55.90
2018-09-23T15:29:32.399Z,56.20
2018-09-23T15:35:01.624Z,56.60
2018-09-23T15:40:31.478Z,56.50
2018-09-23T15:46:00.831Z,56.40
2018-09-23T15:51:30.456Z,56.30
2018-09-23T15:57:00.038Z,56.10
2018-09-23T16:02:29.813Z,55.50
2018-09-23T16:07:59.435Z,54.60
2018-09-23T16:13:28.806Z,54.10
2018-09-23T16:18:58.378Z,54.80
2018-09-23T16:24:27.625Z,55.10
2018-09-23T16:29:56.832Z,55.70
2018-09-23T16:35:26.357Z,55.90
2018-09-23T16:40:55.663Z,56.10
2018-09-23T16:46:25.058Z,56.30
2018-09-23T16:51:54.658Z,56.60
2018-09-23T16:57:23.997Z,56.60
2018-09-23T17:02:53.272Z,56.80
2018-09-23T17:08:22.679Z,56.70
2018-09-23T17:13:52.058Z,56.70
2018-09-23T17:19:21.392Z,56.70
2018-09-23T17:24:50.660Z,57.00
2018-09-23T17:30:20.103Z,57.10
2018-09-23T17:35:49.338Z,57.30
2018-09-23T17:41:18.686Z,57.70
2018-09-23T17:46:48.017Z,57.80
2018-09-23T17:52:19.479Z,58.00
2018-09-23T17:57:49.880Z,58.10
2018-09-23T18:03:19.216Z,58.30
2018-09-23T18:08:48.592Z,58.40
2018-09-23T18:14:17.972Z,58.60
2018-09-23T18:19:47.548Z,58.60
2018-09-23T18:25:16.993Z,58.70
2018-09-23T18:30:47.601Z,58.80
2018-09-23T18:36:16.974Z,58.90
2018-09-23T18:41:46.393Z,60.30
2018-09-23T18:47:15.730Z,62.20
2018-09-23T18:52:45.614Z,62.30
2018-09-23T18:58:15.392Z,62.90
2018-09-23T19:03:45.182Z,62.70
2018-09-23T19:09:15.074Z,62.80
2018-09-23T19:14:45.422Z,59.70
2018-09-23T19:20:15.093Z,63.80
2018-09-23T19:25:44.276Z,66.30
2018-09-23T19:31:14.103Z,68.30
2018-09-23T19:36:43.684Z,69.50
2018-09-23T19:42:14.280Z,70.90
2018-09-23T19:47:43.908Z,72.90
2018-09-23T19:53:13.608Z,72.90
2018-09-23T19:58:45.145Z,74.20
2018-09-23T20:04:14.650Z,74.40
2018-09-23T20:09:44.180Z,74.90
2018-09-23T20:15:17.010Z,75.60
2018-09-23T20:20:47.552Z,76.20
2018-09-23T20:26:17.147Z,76.40
2018-09-23T20:31:46.566Z,76.60
2018-09-23T20:37:17.025Z,77.50
2018-09-23T20:42:46.527Z,78.30
2018-09-23T20:48:16.076Z,78.00
2018-09-23T20:53:46.031Z,78.40
2018-09-23T20:59:15.323Z,78.60
2018-09-23T21:04:44.786Z,78.60
2018-09-23T21:10:14.414Z,78.20
2018-09-23T21:15:44.768Z,78.60
2018-09-23T21:21:14.427Z,78.90
2018-09-23T21:26:45.700Z,79.50
2018-09-23T21:32:15.252Z,79.50
2018-09-23T21:37:45.697Z,80.30
2018-09-23T21:43:14.976Z,80.00
2018-09-23T21:48:44.634Z,80.30
2018-09-23T21:54:14.062Z,80.80
2018-09-23T21:59:43.428Z,80.90
2018-09-23T22:05:13.059Z,81.30
2018-09-23T22:10:42.614Z,81.70
2018-09-23T22:16:12.096Z,81.50
2018-09-23T22:21:41.620Z,81.60
2018-09-23T22:27:11.754Z,81.70
2018-09-23T22:32:41.164Z,81.60
2018-09-23T22:38:10.661Z,81.20
2018-09-23T22:43:41.201Z,81.40
2018-09-23T22:49:10.573Z,80.90
2018-09-23T22:54:39.882Z,81.50
2018-09-23T23:00:09.159Z,81.70
2018-09-23T23:05:38.451Z,81.80
2018-09-23T23:11:07.656Z,81.20
2018-09-23T23:16:36.915Z,81.20
2018-09-23T23:22:06.180Z,80.80
2018-09-23T23:27:35.432Z,80.50
2018-09-23T23:33:04.780Z,80.30
2018-09-23T23:38:34.036Z,80.30
2018-09-23T23:44:03.315Z,80.00
2018-09-23T23:49:32.557Z,79.80
2018-09-23T23:55:01.885Z,79.80
